Time;durP1;ratioP1;P1;durP2;ratioP2;P2;SDS_P1;SDS_P2;PMS_P1;PMS_P2;Temp;Humidity;BMP_temperature;BMP_pressure;BME280_temperature;BME280_humidity;BME280_pressure;Samples;Min_cycle;Max_cycle;Signal;HPM_P1;HPM_P2
2022/10/22 00:02:21;;;;;;;13.30;6.35;;;;;;;11.26;100.00;100839.63;5077683;28;20055;-67
2022/10/22 00:04:47;;;;;;;13.57;6.07;;;;;;;11.26;100.00;100845.84;5094785;27;20062;-66
2022/10/22 00:07:14;;;;;;;58.65;8.23;;;;;;;11.13;100.00;100847.59;5078133;28;20090;-67
2022/10/22 00:09:40;;;;;;;29.75;6.35;;;;;;;11.19;100.00;100854.34;5080566;28;20036;-67
2022/10/22 00:12:05;;;;;;;9.13;5.13;;;;;;;11.12;100.00;100848.56;5079544;28;20043;-66
2022/10/22 00:14:31;;;;;;;9.00;5.20;;;;;;;11.13;100.00;100848.44;5080500;28;20119;-66
2022/10/22 00:16:59;;;;;;;11.27;6.20;;;;;;;11.05;100.00;100839.25;5077789;28;20082;-67
2022/10/22 00:19:25;;;;;;;12.43;7.57;;;;;;;11.00;100.00;100850.22;5071466;28;21424;-67
2022/10/22 00:21:51;;;;;;;12.10;6.80;;;;;;;11.09;100.00;100851.41;5078112;28;20028;-67
2022/10/22 00:24:16;;;;;;;11.70;7.05;;;;;;;11.00;100.00;100852.03;5081017;28;20051;-67
2022/10/22 00:26:42;;;;;;;15.43;7.57;;;;;;;10.93;100.00;100861.38;5078601;28;20047;-67
2022/10/22 00:29:08;;;;;;;18.17;7.03;;;;;;;10.70;100.00;100858.38;5069393;28;20028;-67
2022/10/22 00:31:33;;;;;;;16.15;6.25;;;;;;;10.56;100.00;100864.56;5076722;28;20039;-67
2022/10/22 00:33:58;;;;;;;10.25;5.47;;;;;;;10.45;100.00;100863.56;5082529;28;20040;-67
2022/10/22 00:36:25;;;;;;;13.07;5.63;;;;;;;10.46;100.00;100852.78;5081487;28;20516;-66
2022/10/22 00:38:50;;;;;;;13.60;6.35;;;;;;;10.41;100.00;100856.69;5066805;28;20070;-66
2022/10/22 00:41:15;;;;;;;11.40;5.80;;;;;;;10.51;100.00;100865.81;5073693;28;20044;-67
2022/10/22 00:43:58;;;;;;;12.40;5.95;;;;;;;10.49;100.00;100865.94;5081119;28;20050;-67
2022/10/22 00:46:24;;;;;;;102.72;8.45;;;;;;;10.12;100.00;100857.50;5079307;28;20039;-67
2022/10/22 00:48:50;;;;;;;18.75;4.03;;;;;;;10.10;100.00;100863.88;5082607;28;20458;-66
2022/10/22 00:51:16;;;;;;;53.00;7.00;;;;;;;9.98;100.00;100860.13;5077203;28;20059;-67
2022/10/22 00:53:48;;;;;;;50.65;6.07;;;;;;;9.93;100.00;100858.72;5077822;28;20039;-67
2022/10/22 00:56:14;;;;;;;5.57;3.47;;;;;;;10.05;100.00;100858.84;5081417;28;20839;-67
2022/10/22 00:58:44;;;;;;;16.55;6.55;;;;;;;10.00;100.00;100860.06;5071062;28;20040;-67
2022/10/22 01:01:15;;;;;;;39.35;6.55;;;;;;;9.97;100.00;100858.44;5079799;28;20039;-67
2022/10/22 01:03:40;;;;;;;10.50;4.35;;;;;;;10.04;100.00;100853.56;5057589;28;20044;-66
2022/10/22 01:06:06;;;;;;;13.25;4.47;;;;;;;9.97;100.00;100861.09;5083638;28;20047;-66
2022/10/22 01:09:02;;;;;;;11.23;5.68;;;;;;;10.00;100.00;100852.06;5083186;28;20104;-68
2022/10/22 01:11:42;;;;;;;15.70;6.15;;;;;;;10.02;100.00;100853.69;5078558;28;20036;-66
2022/10/22 01:14:21;;;;;;;15.85;6.82;;;;;;;9.99;100.00;100853.88;5078897;28;20032;-67
2022/10/22 01:16:58;;;;;;;17.35;5.85;;;;;;;9.83;100.00;100863.72;5077556;28;20036;-66
2022/10/22 01:19:57;;;;;;;7.35;4.53;;;;;;;10.04;100.00;100859.78;5075495;28;20072;-67
2022/10/22 01:22:39;;;;;;;9.00;5.57;;;;;;;9.99;100.00;100858.31;5081296;28;20117;-67
2022/10/22 01:25:15;;;;;;;10.85;6.10;;;;;;;9.82;100.00;100860.22;5081989;28;20048;-67
2022/10/22 01:28:09;;;;;;;20.38;5.72;;;;;;;9.79;100.00;100856.91;5080644;28;20064;-67
2022/10/22 01:30:36;;;;;;;83.43;10.20;;;;;;;9.75;100.00;100855.34;5075770;28;20042;-68
2022/10/22 01:33:06;;;;;;;13.98;6.97;;;;;;;9.78;100.00;100861.34;5082006;28;20476;-68
2022/10/22 01:35:37;;;;;;;308.17;26.17;;;;;;;9.87;100.00;100859.94;5083599;28;20776;-67
2022/10/22 01:38:08;;;;;;;37.05;8.13;;;;;;;9.89;100.00;100858.06;5080012;28;20089;-68
2022/10/22 01:40:35;;;;;;;26.98;8.23;;;;;;;10.03;100.00;100862.53;5074470;28;20058;-67
2022/10/22 01:43:03;;;;;;;62.03;10.02;;;;;;;10.01;100.00;100853.78;5101541;27;20039;-67
2022/10/22 01:45:33;;;;;;;19.73;7.47;;;;;;;9.84;100.00;100860.13;5081857;28;20152;-68
2022/10/22 01:48:04;;;;;;;16.08;8.23;;;;;;;9.93;100.00;100859.56;5078188;28;20296;-68
2022/10/22 01:50:39;;;;;;;16.80;7.57;;;;;;;9.78;100.00;100855.16;5096448;28;20040;-68
2022/10/22 01:53:24;;;;;;;15.07;6.97;;;;;;;9.81;100.00;100852.31;5068041;28;20040;-67
2022/10/22 01:56:16;;;;;;;15.23;8.32;;;;;;;9.90;100.00;100859.75;5074528;28;20047;-67
2022/10/22 01:59:06;;;;;;;13.27;6.85;;;;;;;9.82;100.00;100854.03;5077872;28;20040;-68
2022/10/22 02:01:38;;;;;;;16.65;7.43;;;;;;;9.80;100.00;100853.28;5069258;28;20094;-67
2022/10/22 02:04:17;;;;;;;17.67;7.20;;;;;;;9.88;100.00;100858.97;5079335;28;20568;-67
2022/10/22 02:06:45;;;;;;;15.77;7.65;;;;;;;9.83;100.00;100847.75;5078058;28;20040;-67
2022/10/22 02:09:14;;;;;;;23.08;9.05;;;;;;;9.92;100.00;100851.66;5077426;28;20477;-68
2022/10/22 02:11:41;;;;;;;15.88;8.80;;;;;;;10.04;100.00;100845.59;5081415;28;20044;-68
2022/10/22 02:14:09;;;;;;;20.90;8.45;;;;;;;10.10;100.00;100846.09;5071194;28;20041;-68
2022/10/22 02:16:44;;;;;;;23.00;9.85;;;;;;;10.33;100.00;100839.34;5079882;28;20108;-67
2022/10/22 02:19:24;;;;;;;22.38;10.80;;;;;;;10.46;100.00;100833.25;5080468;28;20047;-67
2022/10/22 02:21:50;;;;;;;27.63;10.63;;;;;;;10.55;100.00;100833.53;5094305;28;20040;-67
2022/10/22 02:24:17;;;;;;;22.75;11.05;;;;;;;10.47;100.00;100843.81;5073405;28;20093;-68
2022/10/22 02:27:11;;;;;;;22.73;11.27;;;;;;;10.69;100.00;100847.78;5081692;28;20074;-67
2022/10/22 02:29:48;;;;;;;30.45;11.63;;;;;;;10.70;100.00;100852.19;5073012;28;20040;-66
2022/10/22 02:32:19;;;;;;;22.80;11.52;;;;;;;10.94;100.00;100839.91;5077176;28;20043;-67
2022/10/22 02:34:47;;;;;;;27.05;11.52;;;;;;;10.80;100.00;100847.97;5079479;28;20071;-67
2022/10/22 02:37:14;;;;;;;29.58;10.57;;;;;;;10.88;100.00;100846.50;5098743;27;20032;-69
2022/10/22 02:39:40;;;;;;;24.08;11.10;;;;;;;10.75;100.00;100845.59;5082439;28;20043;-67
2022/10/22 02:42:07;;;;;;;29.05;11.32;;;;;;;10.77;100.00;100849.03;5084771;28;20067;-67
2022/10/22 02:44:32;;;;;;;31.13;12.07;;;;;;;10.85;100.00;100848.53;5082246;28;20042;-68
2022/10/22 02:46:58;;;;;;;23.20;11.05;;;;;;;10.92;100.00;100836.50;5077316;28;20044;-67
2022/10/22 02:49:24;;;;;;;29.83;12.48;;;;;;;11.06;100.00;100838.28;5076712;28;20032;-68
2022/10/22 02:51:49;;;;;;;26.88;11.63;;;;;;;10.91;100.00;100849.97;5076397;28;20090;-68
2022/10/22 02:54:15;;;;;;;33.97;11.82;;;;;;;10.80;100.00;100854.16;5078738;28;20120;-67
2022/10/22 02:56:41;;;;;;;25.98;11.68;;;;;;;10.86;100.00;100853.78;5072329;28;20040;-68
2022/10/22 02:59:06;;;;;;;27.23;12.27;;;;;;;10.96;100.00;100846.03;5077308;28;20036;-67
2022/10/22 03:01:32;;;;;;;28.98;12.20;;;;;;;10.83;100.00;100855.78;5079017;28;20036;-68
2022/10/22 03:03:57;;;;;;;27.38;12.20;;;;;;;10.81;100.00;100847.88;5079015;28;20040;-68
2022/10/22 03:06:22;;;;;;;26.17;12.25;;;;;;;11.02;100.00;100844.78;5075013;28;20055;-67
2022/10/22 03:08:48;;;;;;;25.23;10.73;;;;;;;10.98;100.00;100841.44;5083198;28;20043;-66
2022/10/22 03:11:14;;;;;;;32.25;12.13;;;;;;;10.84;100.00;100838.81;5078111;28;20526;-67
2022/10/22 03:13:39;;;;;;;26.13;10.88;;;;;;;10.82;100.00;100848.72;5075336;28;20040;-68
2022/10/22 03:16:05;;;;;;;30.92;12.43;;;;;;;10.92;100.00;100849.00;5082215;28;20060;-67
2022/10/22 03:18:30;;;;;;;31.42;11.95;;;;;;;10.94;100.00;100847.06;5081856;28;20031;-68
2022/10/22 03:21:28;;;;;;;26.63;10.93;;;;;;;10.90;100.00;100838.44;5074351;28;20043;-68
2022/10/22 03:23:54;;;;;;;25.35;11.00;;;;;;;11.00;100.00;100844.88;5081521;28;20109;-68
2022/10/22 03:26:20;;;;;;;21.15;10.80;;;;;;;10.98;100.00;100837.91;5078857;28;20036;-67
2022/10/22 03:28:47;;;;;;;31.38;11.25;;;;;;;11.26;100.00;100848.50;5108759;27;20825;-67
2022/10/22 03:31:13;;;;;;;26.67;11.90;;;;;;;11.39;100.00;100848.53;5080342;28;20043;-68
2022/10/22 03:33:38;;;;;;;26.50;10.43;;;;;;;11.47;100.00;100848.88;5083532;28;20040;-68
2022/10/22 03:36:05;;;;;;;29.15;10.75;;;;;;;11.39;100.00;100849.38;5079862;28;20046;-68
2022/10/22 03:38:32;;;;;;;18.70;9.73;;;;;;;11.34;100.00;100848.81;5082244;28;20075;-68
2022/10/22 03:40:58;;;;;;;24.08;9.70;;;;;;;11.29;100.00;100847.44;5074581;28;20044;-68
2022/10/22 03:43:23;;;;;;;25.13;11.02;;;;;;;11.28;100.00;100851.06;5078565;28;20050;-67
2022/10/22 03:45:49;;;;;;;20.02;9.70;;;;;;;11.50;100.00;100855.84;5084108;28;20054;-67
2022/10/22 03:48:14;;;;;;;23.02;10.43;;;;;;;11.32;100.00;100864.09;5082256;28;20039;-68
2022/10/22 03:50:40;;;;;;;28.63;9.63;;;;;;;11.39;100.00;100868.06;5076949;28;20044;-68
2022/10/22 03:53:07;;;;;;;22.85;10.52;;;;;;;11.29;100.00;100866.13;5084175;28;20036;-68
2022/10/22 03:55:32;;;;;;;25.60;9.57;;;;;;;11.45;100.00;100866.84;5084028;28;20051;-68
2022/10/22 03:57:58;;;;;;;24.23;10.52;;;;;;;11.49;100.00;100862.97;5080298;28;20040;-67
2022/10/22 04:00:23;;;;;;;21.80;8.82;;;;;;;11.40;100.00;100863.63;5083805;28;20044;-67
2022/10/22 04:02:49;;;;;;;19.63;10.15;;;;;;;11.32;100.00;100871.25;5082599;28;20181;-68
2022/10/22 04:05:14;;;;;;;17.67;8.10;;;;;;;11.33;100.00;100878.31;5082291;28;20058;-68
2022/10/22 04:07:40;;;;;;;23.08;9.23;;;;;;;11.27;100.00;100881.38;5078566;28;20033;-68
2022/10/22 04:10:05;;;;;;;19.27;8.52;;;;;;;11.35;100.00;100881.75;5091968;28;20028;-68
2022/10/22 04:12:31;;;;;;;19.17;9.02;;;;;;;11.27;100.00;100881.38;5083188;28;20035;-68
2022/10/22 04:14:56;;;;;;;17.77;8.63;;;;;;;11.26;100.00;100893.03;5082609;28;20040;-67
2022/10/22 04:17:22;;;;;;;14.07;8.02;;;;;;;11.06;100.00;100891.66;5088093;28;20040;-68
2022/10/22 04:19:47;;;;;;;18.50;8.93;;;;;;;11.12;100.00;100885.91;5075434;28;20044;-68
2022/10/22 04:22:13;;;;;;;22.05;8.82;;;;;;;11.09;100.00;100881.66;5082051;28;20055;-67
2022/10/22 04:24:38;;;;;;;20.58;8.93;;;;;;;11.14;100.00;100879.53;5078697;28;20044;-67
2022/10/22 04:27:04;;;;;;;25.83;9.63;;;;;;;11.17;100.00;100885.63;5076582;28;20040;-68
2022/10/22 04:29:29;;;;;;;24.85;10.00;;;;;;;11.25;100.00;100880.66;5075241;28;20048;-68
2022/10/22 04:31:54;;;;;;;18.75;10.30;;;;;;;11.14;100.00;100887.53;5079156;28;20051;-67
2022/10/22 04:34:20;;;;;;;22.98;9.55;;;;;;;11.07;100.00;100885.34;5073512;28;20051;-68
2022/10/22 04:36:45;;;;;;;24.77;10.65;;;;;;;11.11;100.00;100889.53;5087818;28;20473;-68
2022/10/22 04:39:11;;;;;;;24.58;10.52;;;;;;;11.26;100.00;100888.53;5080682;28;20169;-67
2022/10/22 04:41:37;;;;;;;27.90;11.23;;;;;;;11.36;100.00;100884.31;5075802;28;20047;-67
2022/10/22 04:44:04;;;;;;;20.92;10.07;;;;;;;11.39;100.00;100893.91;5080990;28;20028;-68
2022/10/22 04:46:32;;;;;;;28.77;10.57;;;;;;;11.39;100.00;100888.56;5105185;27;20165;-68
2022/10/22 04:48:58;;;;;;;19.67;10.27;;;;;;;11.39;100.00;100883.25;5076752;28;20177;-68
2022/10/22 04:51:25;;;;;;;25.40;10.73;;;;;;;11.39;100.00;100891.25;5077006;28;20043;-67
2022/10/22 04:53:51;;;;;;;26.33;10.18;;;;;;;11.35;100.00;100887.94;5078370;28;20037;-68
2022/10/22 04:56:28;;;;;;;24.83;10.98;;;;;;;11.26;100.00;100887.69;5080359;28;20810;-67
2022/10/22 04:58:57;;;;;;;25.20;11.13;;;;;;;11.30;100.00;100884.72;5079461;28;20157;-68
2022/10/22 05:01:28;;;;;;;18.45;9.80;;;;;;;11.31;100.00;100889.09;5079855;28;20054;-68
2022/10/22 05:03:56;;;;;;;22.95;10.02;;;;;;;11.29;100.00;100888.31;5075250;28;20031;-68
2022/10/22 05:06:23;;;;;;;24.80;10.98;;;;;;;11.14;100.00;100884.88;5078251;28;20098;-67
2022/10/22 05:08:53;;;;;;;23.92;10.80;;;;;;;11.11;100.00;100890.41;5082502;28;20260;-67
2022/10/22 05:11:22;;;;;;;19.27;9.77;;;;;;;11.16;100.00;100884.75;5069670;28;20094;-68
2022/10/22 05:13:48;;;;;;;20.25;9.77;;;;;;;11.16;100.00;100898.09;5081819;28;20051;-67
2022/10/22 05:16:13;;;;;;;22.45;10.52;;;;;;;11.21;100.00;100903.16;5076453;28;20706;-66
2022/10/22 05:18:42;;;;;;;21.73;9.07;;;;;;;11.18;100.00;100901.53;5078221;28;20028;-68
2022/10/22 05:21:10;;;;;;;21.50;9.48;;;;;;;11.18;100.00;100906.00;5079937;28;20047;-67
2022/10/22 05:23:35;;;;;;;23.73;9.93;;;;;;;11.08;100.00;100898.59;5074808;28;20036;-68
2022/10/22 05:26:02;;;;;;;25.23;9.60;;;;;;;11.30;100.00;100910.56;5079890;28;20040;-68
2022/10/22 05:28:28;;;;;;;24.38;10.02;;;;;;;11.18;100.00;100906.84;5079668;28;20124;-68
2022/10/22 05:30:55;;;;;;;15.63;8.43;;;;;;;11.15;100.00;100905.25;5077214;28;20032;-67
2022/10/22 05:33:21;;;;;;;19.48;8.88;;;;;;;11.14;100.00;100913.34;5077751;28;20128;-68
2022/10/22 05:35:50;;;;;;;23.15;8.23;;;;;;;11.28;100.00;100917.78;5081858;28;20050;-66
2022/10/22 05:38:17;;;;;;;23.88;8.90;;;;;;;11.29;100.00;100920.34;5079811;28;20048;-67
2022/10/22 05:40:43;;;;;;;22.55;9.98;;;;;;;11.31;100.00;100920.28;5082905;28;20043;-67
2022/10/22 05:43:09;;;;;;;36.13;9.65;;;;;;;11.35;100.00;100924.47;5074970;28;20516;-67
2022/10/22 05:45:40;;;;;;;24.83;9.48;;;;;;;11.35;100.00;100916.47;5075961;28;20047;-68
2022/10/22 05:48:06;;;;;;;15.85;7.90;;;;;;;11.48;100.00;100920.00;5079620;28;20081;-67
2022/10/22 05:50:35;;;;;;;18.30;8.10;;;;;;;11.48;100.00;100917.34;5075399;28;20784;-68
2022/10/22 05:53:00;;;;;;;21.02;8.20;;;;;;;11.55;100.00;100915.16;5082316;28;20102;-68
2022/10/22 05:55:26;;;;;;;26.00;8.35;;;;;;;11.53;100.00;100920.56;5081937;28;20052;-68
2022/10/22 05:57:51;;;;;;;16.67;7.65;;;;;;;11.71;100.00;100921.16;5079866;28;20035;-67
2022/10/22 06:00:16;;;;;;;17.45;8.02;;;;;;;11.74;100.00;100928.97;5082179;28;20386;-69
2022/10/22 06:02:42;;;;;;;20.17;8.15;;;;;;;11.61;100.00;100926.28;5082797;28;20058;-68
2022/10/22 06:05:07;;;;;;;28.23;9.00;;;;;;;11.56;100.00;100933.72;5075950;28;20059;-68
2022/10/22 06:07:34;;;;;;;28.10;8.65;;;;;;;11.61;100.00;100928.09;5074860;28;20039;-66
2022/10/22 06:10:00;;;;;;;54.38;10.40;;;;;;;11.71;100.00;100931.84;5074193;28;20036;-67
2022/10/22 06:12:26;;;;;;;26.13;8.20;;;;;;;11.70;100.00;100942.63;5077989;28;20032;-68
2022/10/22 06:14:52;;;;;;;24.23;7.78;;;;;;;11.73;100.00;100937.09;5076338;28;20807;-68
2022/10/22 06:17:18;;;;;;;22.17;8.15;;;;;;;11.68;100.00;100940.06;5069448;28;20044;-68
2022/10/22 06:19:44;;;;;;;27.17;8.38;;;;;;;11.83;100.00;100947.09;5070608;28;20060;-68
2022/10/22 06:22:10;;;;;;;23.42;8.57;;;;;;;11.78;100.00;100940.31;5077491;28;20442;-68
2022/10/22 06:24:35;;;;;;;25.15;9.10;;;;;;;11.79;100.00;100950.88;5077578;28;20047;-67
2022/10/22 06:27:01;;;;;;;19.92;8.35;;;;;;;11.84;100.00;100947.94;5078742;28;20078;-68
2022/10/22 06:29:26;;;;;;;23.30;7.65;;;;;;;11.92;100.00;100957.16;5077803;28;20604;-68
2022/10/22 06:31:52;;;;;;;23.33;7.90;;;;;;;12.04;100.00;100958.16;5076811;28;20036;-68
2022/10/22 06:34:17;;;;;;;17.13;8.93;;;;;;;12.13;100.00;100954.00;5077221;28;20044;-67
2022/10/22 06:36:44;;;;;;;24.80;9.60;;;;;;;12.27;100.00;100964.63;5082710;28;20051;-67
2022/10/22 06:39:16;;;;;;;20.90;8.85;;;;;;;12.35;100.00;100969.41;5068538;28;20044;-67
2022/10/22 06:41:41;;;;;;;26.63;9.40;;;;;;;12.49;100.00;100968.47;5073010;28;20028;-69
2022/10/22 06:44:12;;;;;;;23.83;10.05;;;;;;;12.56;100.00;100977.81;5076274;28;20799;-69
2022/10/22 06:46:38;;;;;;;21.98;9.07;;;;;;;12.70;100.00;100981.22;5071526;28;20044;-68
2022/10/22 06:49:04;;;;;;;23.55;8.43;;;;;;;12.74;100.00;100981.84;5075942;28;20043;-69
2022/10/22 06:51:30;;;;;;;14.75;8.20;;;;;;;12.71;100.00;100990.09;5075078;28;20043;-68
2022/10/22 06:53:57;;;;;;;23.60;8.00;;;;;;;12.80;100.00;100985.91;5071796;28;20039;-68
2022/10/22 06:56:24;;;;;;;15.65;7.72;;;;;;;12.81;100.00;100988.50;5073892;28;20043;-68
2022/10/22 06:58:52;;;;;;;24.45;8.18;;;;;;;12.78;100.00;101002.09;5072666;28;20132;-69
2022/10/22 07:01:21;;;;;;;25.05;8.15;;;;;;;12.81;100.00;101012.59;5074067;28;20068;-67
2022/10/22 07:03:49;;;;;;;23.00;7.00;;;;;;;12.77;100.00;101008.41;5080396;28;20085;-69
2022/10/22 07:06:15;;;;;;;16.85;7.28;;;;;;;12.85;100.00;101015.88;5066701;28;20048;-68
2022/10/22 07:08:41;;;;;;;21.42;7.20;;;;;;;12.74;100.00;101011.28;5077248;28;20483;-67
2022/10/22 07:11:10;;;;;;;19.48;7.65;;;;;;;12.77;100.00;101016.44;5076558;28;20178;-69
2022/10/22 07:13:36;;;;;;;12.95;6.72;;;;;;;12.83;100.00;101018.69;5076470;28;20119;-69
2022/10/22 07:16:02;;;;;;;24.98;7.38;;;;;;;12.80;100.00;101026.94;5075570;28;20118;-71
2022/10/22 07:18:28;;;;;;;18.75;6.82;;;;;;;12.81;100.00;101027.78;5075872;28;20912;-70
2022/10/22 07:20:54;;;;;;;22.02;6.97;;;;;;;12.94;100.00;101031.28;5091154;28;20040;-68
2022/10/22 07:23:19;;;;;;;15.07;6.15;;;;;;;13.00;100.00;101033.53;5074459;28;20043;-73
2022/10/22 07:25:45;;;;;;;18.08;7.63;;;;;;;13.05;100.00;101033.22;5073599;28;20032;-67
2022/10/22 07:28:10;;;;;;;19.67;6.63;;;;;;;13.34;100.00;101045.44;5078934;28;20040;-70
2022/10/22 07:30:36;;;;;;;13.60;6.70;;;;;;;13.42;100.00;101043.06;5073984;28;20552;-68
2022/10/22 07:33:02;;;;;;;13.82;6.05;;;;;;;13.59;100.00;101044.50;5079983;28;20054;-69
2022/10/22 07:35:28;;;;;;;10.65;6.10;;;;;;;13.69;100.00;101050.06;5077007;28;20650;-70
2022/10/22 07:37:53;;;;;;;14.98;5.95;;;;;;;13.56;100.00;101051.94;5081216;28;20068;-67
2022/10/22 07:40:19;;;;;;;16.88;6.00;;;;;;;13.57;100.00;101051.81;5077310;28;20706;-69
2022/10/22 07:42:44;;;;;;;14.77;6.82;;;;;;;13.65;100.00;101056.59;5081959;28;20610;-68
2022/10/22 07:45:10;;;;;;;15.73;7.18;;;;;;;13.70;100.00;101062.47;5081200;28;20040;-68
2022/10/22 07:47:35;;;;;;;12.77;6.13;;;;;;;13.67;100.00;101065.41;5084241;28;20031;-69
2022/10/22 07:50:00;;;;;;;19.92;6.43;;;;;;;13.77;100.00;101069.13;5073526;28;20552;-69
2022/10/22 07:52:26;;;;;;;25.10;6.72;;;;;;;13.84;100.00;101065.00;5079685;28;20055;-69
2022/10/22 07:54:52;;;;;;;25.38;6.28;;;;;;;13.91;100.00;101074.34;5079306;28;20756;-69
2022/10/22 07:57:17;;;;;;;23.20;7.63;;;;;;;14.01;100.00;101079.88;5080284;28;20818;-69
2022/10/22 07:59:43;;;;;;;15.30;6.43;;;;;;;14.05;100.00;101075.13;5076541;28;20055;-69
2022/10/22 08:02:10;;;;;;;13.02;5.75;;;;;;;14.13;100.00;101080.78;5081448;28;20484;-68
2022/10/22 08:04:36;;;;;;;16.45;6.15;;;;;;;14.15;100.00;101084.19;5074071;28;20044;-69
2022/10/22 08:07:02;;;;;;;14.48;7.00;;;;;;;14.25;100.00;101085.22;5081042;28;20038;-68
2022/10/22 08:09:27;;;;;;;11.95;6.20;;;;;;;14.37;100.00;101080.78;5079357;28;20039;-69
2022/10/22 08:11:53;;;;;;;17.08;5.65;;;;;;;14.39;100.00;101085.03;5081374;28;20032;-69
2022/10/22 08:14:19;;;;;;;14.15;6.13;;;;;;;14.40;100.00;101091.25;5075768;28;20032;-68
2022/10/22 08:16:45;;;;;;;22.40;6.47;;;;;;;14.50;100.00;101086.94;5079326;28;20688;-68
2022/10/22 08:19:12;;;;;;;12.15;5.82;;;;;;;14.53;100.00;101080.50;5073999;28;20274;-69
2022/10/22 08:21:38;;;;;;;16.95;5.68;;;;;;;14.48;100.00;101086.22;5080449;28;20079;-67
2022/10/22 08:24:03;;;;;;;20.55;6.25;;;;;;;14.38;100.00;101095.91;5073858;28;20056;-68
2022/10/22 08:26:29;;;;;;;15.63;5.28;;;;;;;14.40;100.00;101094.78;5082051;28;20416;-68
2022/10/22 08:28:54;;;;;;;18.05;6.35;;;;;;;14.57;100.00;101096.25;5076177;28;20040;-68
2022/10/22 08:31:20;;;;;;;16.77;5.78;;;;;;;14.71;100.00;101090.69;5079969;28;20054;-69
2022/10/22 08:33:45;;;;;;;10.82;5.90;;;;;;;14.85;100.00;101096.81;5080039;28;20040;-68
2022/10/22 08:36:11;;;;;;;20.60;5.80;;;;;;;15.03;100.00;101098.94;5077057;28;20036;-68
2022/10/22 08:38:36;;;;;;;19.80;6.35;;;;;;;15.11;100.00;101095.66;5072878;28;20035;-68
2022/10/22 08:41:14;;;;;;;16.42;5.40;;;;;;;15.32;100.00;101101.16;5076555;28;20051;-69
2022/10/22 08:43:55;;;;;;;15.65;4.63;;;;;;;15.45;100.00;101104.56;5080366;28;20959;-69
2022/10/22 08:46:59;;;;;;;19.38;4.88;;;;;;;15.28;100.00;101102.38;5073184;28;20037;-67
2022/10/22 08:49:28;;;;;;;13.85;4.82;;;;;;;15.47;100.00;101105.31;5070524;28;20036;-68
2022/10/22 08:51:56;;;;;;;9.02;4.03;;;;;;;15.59;100.00;101106.16;5079073;28;20087;-68
2022/10/22 08:54:51;;;;;;;16.50;5.25;;;;;;;15.93;100.00;101106.16;5090096;28;20028;-68
2022/10/22 08:57:49;;;;;;;14.57;4.60;;;;;;;15.78;100.00;101117.19;5079687;28;20044;-71
2022/10/22 09:00:32;;;;;;;12.63;4.22;;;;;;;15.58;100.00;101115.22;5079848;28;20043;-68
2022/10/22 09:03:29;;;;;;;9.60;3.30;;;;;;;15.55;100.00;101127.03;5073826;28;20053;-67
2022/10/22 09:06:23;;;;;;;18.25;4.18;;;;;;;15.51;100.00;101125.59;5068460;28;20048;-68
2022/10/22 09:08:49;;;;;;;9.88;4.13;;;;;;;15.69;100.00;101123.28;5074709;28;20176;-68
2022/10/22 09:11:22;;;;;;;11.60;3.50;;;;;;;15.91;100.00;101127.78;5074173;28;20044;-67
2022/10/22 09:13:49;;;;;;;11.27;3.75;;;;;;;16.19;100.00;101129.09;5076127;28;20089;-68
2022/10/22 09:16:16;;;;;;;9.95;3.33;;;;;;;16.17;100.00;101144.50;5080478;28;20072;-68
2022/10/22 09:19:06;;;;;;;14.32;3.83;;;;;;;16.05;100.00;101140.13;5073226;28;20047;-67
2022/10/22 09:21:35;;;;;;;8.73;3.33;;;;;;;16.14;100.00;101141.22;5070513;28;20032;-67
2022/10/22 09:24:09;;;;;;;5.43;3.28;;;;;;;16.18;100.00;101145.38;5073840;28;20040;-67
2022/10/22 09:26:37;;;;;;;9.32;3.28;;;;;;;16.00;100.00;101156.63;5080063;28;20047;-67
2022/10/22 09:29:03;;;;;;;13.82;4.32;;;;;;;15.84;100.00;101152.63;5078731;28;20039;-68
2022/10/22 09:31:31;;;;;;;9.50;3.20;;;;;;;16.01;100.00;101155.69;5076877;28;20043;-67
2022/10/22 09:33:58;;;;;;;17.30;3.90;;;;;;;15.97;100.00;101154.22;5071889;28;20055;-68
2022/10/22 09:36:24;;;;;;;12.77;2.80;;;;;;;16.02;100.00;101157.38;5081073;28;20040;-67
2022/10/22 09:38:52;;;;;;;12.65;2.83;;;;;;;16.21;100.00;101158.53;5075947;28;20039;-67
2022/10/22 09:41:19;;;;;;;8.40;3.25;;;;;;;16.39;100.00;101172.34;5082800;28;20147;-68
2022/10/22 09:43:48;;;;;;;10.52;3.08;;;;;;;16.48;100.00;101163.50;5080493;28;20108;-67
2022/10/22 09:46:27;;;;;;;14.23;3.50;;;;;;;16.46;100.00;101173.53;5077237;28;20044;-68
2022/10/22 09:49:09;;;;;;;10.50;2.95;;;;;;;16.26;100.00;101170.63;5078267;28;20043;-68
2022/10/22 09:51:40;;;;;;;11.30;2.85;;;;;;;16.13;100.00;101178.03;5080362;28;20100;-67
2022/10/22 09:54:31;;;;;;;14.75;3.10;;;;;;;16.13;100.00;101185.25;5071894;28;20039;-67
2022/10/22 09:57:04;;;;;;;13.30;3.30;;;;;;;16.02;100.00;101191.50;5075591;28;20064;-68
2022/10/22 09:59:36;;;;;;;11.80;3.80;;;;;;;15.78;100.00;101188.94;5077231;28;20044;-67
2022/10/22 10:02:08;;;;;;;;;;;;;;;15.70;100.00;101200.28;5059729;28;20503;-66
2022/10/22 10:04:39;;;;;;;10.53;2.70;;;;;;;15.67;100.00;101205.91;5078109;28;19920;-73
2022/10/22 10:07:18;;;;;;;14.32;3.08;;;;;;;15.77;100.00;101201.53;5091876;28;20043;-73
2022/10/22 10:09:44;;;;;;;13.82;4.25;;;;;;;15.66;100.00;101206.91;5096853;28;20785;-69
2022/10/22 10:12:31;;;;;;;14.65;4.13;;;;;;;15.59;100.00;101215.53;5076325;28;20055;-69
2022/10/22 10:15:23;;;;;;;9.90;3.72;;;;;;;15.79;100.00;101214.84;5078500;28;20036;-67
2022/10/22 10:18:04;;;;;;;10.80;3.13;;;;;;;15.88;100.00;101216.81;5074029;28;20048;-69
2022/10/22 10:20:57;;;;;;;18.00;4.10;;;;;;;16.03;100.00;101220.94;5081950;28;20044;-70
2022/10/22 10:23:50;;;;;;;14.75;4.20;;;;;;;15.88;100.00;101229.41;5081537;28;20036;-71
2022/10/22 10:26:41;;;;;;;10.27;3.65;;;;;;;15.54;100.00;101240.94;5095748;28;20051;-68
2022/10/22 10:29:28;;;;;;;15.80;3.83;;;;;;;15.60;100.00;101241.44;5079956;28;20081;-67
2022/10/22 10:32:18;;;;;;;8.55;2.85;;;;;;;15.50;100.00;101246.66;5069905;28;20071;-69
2022/10/22 10:34:56;;;;;;;20.27;4.38;;;;;;;15.48;100.00;101248.63;5078173;28;20028;-69
2022/10/22 10:37:28;;;;;;;14.32;3.72;;;;;;;15.58;100.00;101246.06;5077493;28;20038;-68
2022/10/22 10:39:53;;;;;;;17.95;3.72;;;;;;;15.66;100.00;101247.22;5076260;28;20555;-67
2022/10/22 10:42:37;;;;;;;22.70;5.82;;;;;;;15.66;100.00;101249.03;5078019;28;20034;-69
2022/10/22 10:45:17;;;;;;;15.82;4.07;;;;;;;16.11;100.00;101244.53;5079854;28;20059;-69
2022/10/22 10:47:54;;;;;;;15.68;4.57;;;;;;;16.28;100.00;101252.13;5077695;28;20090;-69
2022/10/22 10:50:29;;;;;;;18.55;5.43;;;;;;;16.49;100.00;101254.91;5076409;28;20146;-70
2022/10/22 10:53:23;;;;;;;18.17;5.35;;;;;;;16.59;100.00;101255.00;5083661;28;20361;-68
2022/10/22 10:56:26;;;;;;;21.20;5.03;;;;;;;16.36;100.00;101247.94;5080810;28;20358;-68
2022/10/22 10:58:52;;;;;;;;;;;;;;;16.34;100.00;101253.47;5080856;28;20502;-67
2022/10/22 11:01:29;;;;;;;12.50;4.32;;;;;;;16.54;100.00;101257.22;5082796;28;19926;-67
2022/10/22 11:04:33;;;;;;;30.45;5.00;;;;;;;16.81;100.00;101252.28;5081312;28;20059;-68
2022/10/22 11:07:04;;;;;;;11.02;3.50;;;;;;;16.93;100.00;101255.81;5079662;28;20048;-71
2022/10/22 11:09:38;;;;;;;15.75;4.88;;;;;;;16.51;100.00;101258.31;5088245;28;20119;-68
2022/10/22 11:12:11;;;;;;;14.60;4.97;;;;;;;16.71;100.00;101262.09;5074914;28;20059;-68
2022/10/22 11:14:54;;;;;;;15.05;4.88;;;;;;;16.74;100.00;101261.00;5074905;28;20040;-70
2022/10/22 11:17:23;;;;;;;8.75;4.35;;;;;;;16.97;100.00;101259.09;5076966;28;20048;-67
2022/10/22 11:20:05;;;;;;;17.30;4.68;;;;;;;16.83;100.00;101260.25;5079838;28;20035;-69
2022/10/22 11:22:33;;;;;;;15.70;5.13;;;;;;;16.99;100.00;101254.44;5080348;28;20036;-68
2022/10/22 11:25:22;;;;;;;18.67;5.68;;;;;;;16.91;100.00;101248.81;5073719;28;20161;-69